sensor_id;sensor_type;location;lat;lon;timestamp;temperature;humidity
4279;DHT22;2153;47.744;10.580;2023-04-25T00:00:10;6.40;99.90
4279;DHT22;2153;47.744;10.580;2023-04-25T00:02:37;6.40;99.90
4279;DHT22;2153;47.744;10.580;2023-04-25T00:05:04;6.40;99.90
4279;DHT22;2153;47.744;10.580;2023-04-25T00:07:34;6.40;99.90
4279;DHT22;2153;47.744;10.580;2023-04-25T00:10:01;6.40;99.90
4279;DHT22;2153;47.744;10.580;2023-04-25T00:12:27;6.40;99.90
4279;DHT22;2153;47.744;10.580;2023-04-25T00:14:55;6.40;99.90
4279;DHT22;2153;47.744;10.580;2023-04-25T00:17:22;6.40;99.90
4279;DHT22;2153;47.744;10.580;2023-04-25T00:19:50;6.40;99.90
4279;DHT22;2153;47.744;10.580;2023-04-25T00:22:17;6.40;99.90
4279;DHT22;2153;47.744;10.580;2023-04-25T00:24:45;6.40;99.90
4279;DHT22;2153;47.744;10.580;2023-04-25T00:27:11;6.40;99.90
4279;DHT22;2153;47.744;10.580;2023-04-25T00:29:38;6.40;99.90
4279;DHT22;2153;47.744;10.580;2023-04-25T00:32:05;6.40;99.90
4279;DHT22;2153;47.744;10.580;2023-04-25T00:34:32;6.40;99.90
4279;DHT22;2153;47.744;10.580;2023-04-25T00:36:59;6.40;99.90
4279;DHT22;2153;47.744;10.580;2023-04-25T00:39:27;6.40;99.90
4279;DHT22;2153;47.744;10.580;2023-04-25T00:41:55;6.40;99.90
4279;DHT22;2153;47.744;10.580;2023-04-25T00:44:22;6.40;99.90
4279;DHT22;2153;47.744;10.580;2023-04-25T00:46:50;6.30;99.90
4279;DHT22;2153;47.744;10.580;2023-04-25T00:49:16;6.30;99.90
4279;DHT22;2153;47.744;10.580;2023-04-25T00:51:43;6.30;99.90
4279;DHT22;2153;47.744;10.580;2023-04-25T00:54:11;6.30;99.90
4279;DHT22;2153;47.744;10.580;2023-04-25T00:56:38;6.30;99.90
4279;DHT22;2153;47.744;10.580;2023-04-25T00:59:07;6.30;99.90
4279;DHT22;2153;47.744;10.580;2023-04-25T01:01:35;6.30;99.90
4279;DHT22;2153;47.744;10.580;2023-04-25T01:04:03;6.30;99.90
4279;DHT22;2153;47.744;10.580;2023-04-25T01:06:30;6.20;99.90
4279;DHT22;2153;47.744;10.580;2023-04-25T01:08:57;6.20;99.90
4279;DHT22;2153;47.744;10.580;2023-04-25T01:11:25;6.20;99.90
4279;DHT22;2153;47.744;10.580;2023-04-25T01:13:52;6.20;99.90
4279;DHT22;2153;47.744;10.580;2023-04-25T01:16:20;6.20;99.90
4279;DHT22;2153;47.744;10.580;2023-04-25T01:18:49;6.10;99.90
4279;DHT22;2153;47.744;10.580;2023-04-25T01:21:18;6.10;99.90
4279;DHT22;2153;47.744;10.580;2023-04-25T01:23:45;6.10;99.90
4279;DHT22;2153;47.744;10.580;2023-04-25T01:26:12;6.10;99.90
4279;DHT22;2153;47.744;10.580;2023-04-25T01:28:39;6.00;99.90
4279;DHT22;2153;47.744;10.580;2023-04-25T01:31:07;5.90;99.90
4279;DHT22;2153;47.744;10.580;2023-04-25T01:33:34;5.90;99.90
4279;DHT22;2153;47.744;10.580;2023-04-25T01:36:01;5.90;99.90
4279;DHT22;2153;47.744;10.580;2023-04-25T01:38:29;5.90;99.90
4279;DHT22;2153;47.744;10.580;2023-04-25T01:40:56;5.90;99.90
4279;DHT22;2153;47.744;10.580;2023-04-25T01:43:23;5.90;99.90
4279;DHT22;2153;47.744;10.580;2023-04-25T01:45:50;5.90;99.90
4279;DHT22;2153;47.744;10.580;2023-04-25T01:48:17;6.00;99.90
4279;DHT22;2153;47.744;10.580;2023-04-25T01:50:45;6.00;99.90
4279;DHT22;2153;47.744;10.580;2023-04-25T01:53:13;5.90;99.90
4279;DHT22;2153;47.744;10.580;2023-04-25T01:55:42;6.00;99.90
4279;DHT22;2153;47.744;10.580;2023-04-25T01:58:09;6.00;99.90
4279;DHT22;2153;47.744;10.580;2023-04-25T02:00:38;5.90;99.90
4279;DHT22;2153;47.744;10.580;2023-04-25T02:03:06;5.90;99.90
4279;DHT22;2153;47.744;10.580;2023-04-25T02:05:37;5.90;99.90
4279;DHT22;2153;47.744;10.580;2023-04-25T02:08:06;5.90;99.90
4279;DHT22;2153;47.744;10.580;2023-04-25T02:10:33;5.80;99.90
4279;DHT22;2153;47.744;10.580;2023-04-25T02:13:01;5.70;99.90
4279;DHT22;2153;47.744;10.580;2023-04-25T02:15:29;5.70;99.90
4279;DHT22;2153;47.744;10.580;2023-04-25T02:17:55;5.60;99.90
4279;DHT22;2153;47.744;10.580;2023-04-25T02:20:24;5.60;99.90
4279;DHT22;2153;47.744;10.580;2023-04-25T02:22:51;5.60;99.90
4279;DHT22;2153;47.744;10.580;2023-04-25T02:25:19;5.50;99.90
4279;DHT22;2153;47.744;10.580;2023-04-25T02:27:46;5.50;99.90
4279;DHT22;2153;47.744;10.580;2023-04-25T02:30:14;5.50;99.90
4279;DHT22;2153;47.744;10.580;2023-04-25T02:32:41;5.50;99.90
4279;DHT22;2153;47.744;10.580;2023-04-25T02:35:08;5.40;99.90
4279;DHT22;2153;47.744;10.580;2023-04-25T02:37:36;5.40;99.90
4279;DHT22;2153;47.744;10.580;2023-04-25T02:40:05;5.40;99.90
4279;DHT22;2153;47.744;10.580;2023-04-25T02:42:32;5.40;99.90
4279;DHT22;2153;47.744;10.580;2023-04-25T02:44:59;5.40;99.90
4279;DHT22;2153;47.744;10.580;2023-04-25T02:47:27;5.40;99.90
4279;DHT22;2153;47.744;10.580;2023-04-25T02:49:54;5.30;99.90
4279;DHT22;2153;47.744;10.580;2023-04-25T02:52:21;5.30;99.90
4279;DHT22;2153;47.744;10.580;2023-04-25T02:54:48;5.30;99.90
4279;DHT22;2153;47.744;10.580;2023-04-25T02:57:15;5.40;99.90
4279;DHT22;2153;47.744;10.580;2023-04-25T02:59:41;5.30;99.90
4279;DHT22;2153;47.744;10.580;2023-04-25T03:02:08;5.20;99.90
4279;DHT22;2153;47.744;10.580;2023-04-25T03:04:36;5.10;99.90
4279;DHT22;2153;47.744;10.580;2023-04-25T03:07:04;5.00;99.90
4279;DHT22;2153;47.744;10.580;2023-04-25T03:09:31;5.00;99.90
4279;DHT22;2153;47.744;10.580;2023-04-25T03:11:58;4.90;99.90
4279;DHT22;2153;47.744;10.580;2023-04-25T03:14:24;4.90;99.90
4279;DHT22;2153;47.744;10.580;2023-04-25T03:16:51;4.80;99.90
4279;DHT22;2153;47.744;10.580;2023-04-25T03:19:18;4.70;99.90
4279;DHT22;2153;47.744;10.580;2023-04-25T03:21:47;4.70;99.90
4279;DHT22;2153;47.744;10.580;2023-04-25T03:24:14;4.60;99.90
4279;DHT22;2153;47.744;10.580;2023-04-25T03:26:41;4.50;99.90
4279;DHT22;2153;47.744;10.580;2023-04-25T03:29:08;4.50;99.90
4279;DHT22;2153;47.744;10.580;2023-04-25T03:31:35;4.50;99.90
4279;DHT22;2153;47.744;10.580;2023-04-25T03:34:01;4.50;99.90
4279;DHT22;2153;47.744;10.580;2023-04-25T03:36:28;4.50;99.90
4279;DHT22;2153;47.744;10.580;2023-04-25T03:38:56;4.50;99.90
4279;DHT22;2153;47.744;10.580;2023-04-25T03:41:23;4.50;99.90
4279;DHT22;2153;47.744;10.580;2023-04-25T03:43:50;4.50;99.90
4279;DHT22;2153;47.744;10.580;2023-04-25T03:46:17;4.50;99.90
4279;DHT22;2153;47.744;10.580;2023-04-25T03:48:43;4.60;99.90
4279;DHT22;2153;47.744;10.580;2023-04-25T03:51:10;4.60;99.90
4279;DHT22;2153;47.744;10.580;2023-04-25T03:53:37;4.60;99.90
4279;DHT22;2153;47.744;10.580;2023-04-25T03:56:06;4.60;99.90
4279;DHT22;2153;47.744;10.580;2023-04-25T03:58:33;4.70;99.90
4279;DHT22;2153;47.744;10.580;2023-04-25T04:01:00;4.70;99.90
4279;DHT22;2153;47.744;10.580;2023-04-25T04:03:28;4.70;99.90
4279;DHT22;2153;47.744;10.580;2023-04-25T04:05:55;4.60;99.90
4279;DHT22;2153;47.744;10.580;2023-04-25T04:08:21;4.60;99.90
4279;DHT22;2153;47.744;10.580;2023-04-25T04:10:48;4.60;99.90
4279;DHT22;2153;47.744;10.580;2023-04-25T04:13:16;4.60;99.90
4279;DHT22;2153;47.744;10.580;2023-04-25T04:15:43;4.60;99.90
4279;DHT22;2153;47.744;10.580;2023-04-25T04:18:10;4.60;99.90
4279;DHT22;2153;47.744;10.580;2023-04-25T04:20:37;4.50;99.90
4279;DHT22;2153;47.744;10.580;2023-04-25T04:23:03;4.50;99.90
4279;DHT22;2153;47.744;10.580;2023-04-25T04:25:30;4.50;99.90
4279;DHT22;2153;47.744;10.580;2023-04-25T04:27:57;4.50;99.90
4279;DHT22;2153;47.744;10.580;2023-04-25T04:30:25;4.50;99.90
4279;DHT22;2153;47.744;10.580;2023-04-25T04:32:55;4.50;99.90
4279;DHT22;2153;47.744;10.580;2023-04-25T04:35:21;4.50;99.90
4279;DHT22;2153;47.744;10.580;2023-04-25T04:37:48;4.50;99.90
4279;DHT22;2153;47.744;10.580;2023-04-25T04:40:16;4.50;99.90
4279;DHT22;2153;47.744;10.580;2023-04-25T04:42:43;4.50;99.90
4279;DHT22;2153;47.744;10.580;2023-04-25T04:45:10;4.50;99.90
4279;DHT22;2153;47.744;10.580;2023-04-25T04:47:39;4.50;99.90
4279;DHT22;2153;47.744;10.580;2023-04-25T04:50:07;4.60;99.90
4279;DHT22;2153;47.744;10.580;2023-04-25T04:52:34;4.60;99.90
4279;DHT22;2153;47.744;10.580;2023-04-25T04:55:01;4.60;99.90
4279;DHT22;2153;47.744;10.580;2023-04-25T04:57:28;4.70;99.90
4279;DHT22;2153;47.744;10.580;2023-04-25T04:59:56;4.70;99.90
4279;DHT22;2153;47.744;10.580;2023-04-25T05:02:23;4.80;99.90
4279;DHT22;2153;47.744;10.580;2023-04-25T05:04:51;4.80;99.90
4279;DHT22;2153;47.744;10.580;2023-04-25T05:07:18;4.90;99.90
4279;DHT22;2153;47.744;10.580;2023-04-25T05:09:45;5.00;99.90
4279;DHT22;2153;47.744;10.580;2023-04-25T05:12:12;5.10;99.90
4279;DHT22;2153;47.744;10.580;2023-04-25T05:14:39;5.10;99.90
4279;DHT22;2153;47.744;10.580;2023-04-25T05:17:05;5.30;99.90
4279;DHT22;2153;47.744;10.580;2023-04-25T05:19:34;5.40;99.90
4279;DHT22;2153;47.744;10.580;2023-04-25T05:22:02;5.40;99.90
4279;DHT22;2153;47.744;10.580;2023-04-25T05:24:29;5.60;99.90
4279;DHT22;2153;47.744;10.580;2023-04-25T05:26:56;5.70;99.90
4279;DHT22;2153;47.744;10.580;2023-04-25T05:29:22;5.80;99.90
4279;DHT22;2153;47.744;10.580;2023-04-25T05:31:49;5.80;99.90
4279;DHT22;2153;47.744;10.580;2023-04-25T05:34:16;5.90;99.90
4279;DHT22;2153;47.744;10.580;2023-04-25T05:36:43;5.90;99.90
4279;DHT22;2153;47.744;10.580;2023-04-25T05:39:11;6.00;99.90
4279;DHT22;2153;47.744;10.580;2023-04-25T05:41:38;6.00;99.90
4279;DHT22;2153;47.744;10.580;2023-04-25T05:44:05;6.20;99.90
4279;DHT22;2153;47.744;10.580;2023-04-25T05:46:32;6.20;99.90
4279;DHT22;2153;47.744;10.580;2023-04-25T05:48:59;6.30;99.90
4279;DHT22;2153;47.744;10.580;2023-04-25T05:51:25;6.30;99.90
4279;DHT22;2153;47.744;10.580;2023-04-25T05:53:53;6.40;99.90
4279;DHT22;2153;47.744;10.580;2023-04-25T05:56:21;6.40;99.90
4279;DHT22;2153;47.744;10.580;2023-04-25T05:58:48;6.50;99.90
4279;DHT22;2153;47.744;10.580;2023-04-25T06:01:14;6.90;99.90
4279;DHT22;2153;47.744;10.580;2023-04-25T06:03:41;7.50;99.90
4279;DHT22;2153;47.744;10.580;2023-04-25T06:06:08;8.10;99.90
4279;DHT22;2153;47.744;10.580;2023-04-25T06:08:35;8.40;99.90
4279;DHT22;2153;47.744;10.580;2023-04-25T06:11:03;8.40;99.90
4279;DHT22;2153;47.744;10.580;2023-04-25T06:13:31;8.50;99.90
4279;DHT22;2153;47.744;10.580;2023-04-25T06:15:58;8.60;99.90
4279;DHT22;2153;47.744;10.580;2023-04-25T06:18:25;8.60;99.90
4279;DHT22;2153;47.744;10.580;2023-04-25T06:20:51;8.60;99.90
4279;DHT22;2153;47.744;10.580;2023-04-25T06:23:18;8.40;99.90
4279;DHT22;2153;47.744;10.580;2023-04-25T06:25:45;8.20;99.90
4279;DHT22;2153;47.744;10.580;2023-04-25T06:28:12;8.10;99.90
4279;DHT22;2153;47.744;10.580;2023-04-25T06:30:40;7.90;99.90
4279;DHT22;2153;47.744;10.580;2023-04-25T06:33:06;7.80;99.90
4279;DHT22;2153;47.744;10.580;2023-04-25T06:35:34;7.80;99.90
4279;DHT22;2153;47.744;10.580;2023-04-25T06:38:01;7.80;99.90
4279;DHT22;2153;47.744;10.580;2023-04-25T06:40:28;7.70;99.90
4279;DHT22;2153;47.744;10.580;2023-04-25T06:42:55;7.70;99.90
4279;DHT22;2153;47.744;10.580;2023-04-25T06:45:21;7.70;99.90
4279;DHT22;2153;47.744;10.580;2023-04-25T06:47:49;7.60;99.90
4279;DHT22;2153;47.744;10.580;2023-04-25T06:50:16;7.50;99.90
4279;DHT22;2153;47.744;10.580;2023-04-25T06:52:43;8.30;99.90
4279;DHT22;2153;47.744;10.580;2023-04-25T06:55:10;9.40;99.90
4279;DHT22;2153;47.744;10.580;2023-04-25T06:57:36;10.10;99.90
4279;DHT22;2153;47.744;10.580;2023-04-25T07:00:04;11.10;99.90
4279;DHT22;2153;47.744;10.580;2023-04-25T07:02:34;11.90;99.90
4279;DHT22;2153;47.744;10.580;2023-04-25T07:05:02;12.30;99.90
4279;DHT22;2153;47.744;10.580;2023-04-25T07:07:29;12.50;99.90
4279;DHT22;2153;47.744;10.580;2023-04-25T07:09:56;12.90;99.90
4279;DHT22;2153;47.744;10.580;2023-04-25T07:12:23;12.40;99.90
4279;DHT22;2153;47.744;10.580;2023-04-25T07:14:50;12.50;99.90
4279;DHT22;2153;47.744;10.580;2023-04-25T07:17:16;12.50;99.90
4279;DHT22;2153;47.744;10.580;2023-04-25T07:19:43;12.40;99.90
4279;DHT22;2153;47.744;10.580;2023-04-25T07:22:11;12.60;99.90
4279;DHT22;2153;47.744;10.580;2023-04-25T07:24:38;13.10;99.90
4279;DHT22;2153;47.744;10.580;2023-04-25T07:27:05;13.20;99.90
4279;DHT22;2153;47.744;10.580;2023-04-25T07:29:32;12.10;99.90
4279;DHT22;2153;47.744;10.580;2023-04-25T07:32:02;10.80;99.90
4279;DHT22;2153;47.744;10.580;2023-04-25T07:34:29;10.20;99.90
4279;DHT22;2153;47.744;10.580;2023-04-25T07:36:57;10.90;99.90
4279;DHT22;2153;47.744;10.580;2023-04-25T07:39:26;11.20;99.90
4279;DHT22;2153;47.744;10.580;2023-04-25T07:41:52;11.50;99.90
4279;DHT22;2153;47.744;10.580;2023-04-25T07:44:20;10.90;99.90
4279;DHT22;2153;47.744;10.580;2023-04-25T07:46:46;10.50;99.90
4279;DHT22;2153;47.744;10.580;2023-04-25T07:49:13;10.20;99.90
4279;DHT22;2153;47.744;10.580;2023-04-25T07:51:40;10.00;99.90
4279;DHT22;2153;47.744;10.580;2023-04-25T07:54:08;9.80;99.90
4279;DHT22;2153;47.744;10.580;2023-04-25T07:56:36;9.60;99.90
4279;DHT22;2153;47.744;10.580;2023-04-25T07:59:03;9.50;99.90
4279;DHT22;2153;47.744;10.580;2023-04-25T08:01:30;9.60;99.90
4279;DHT22;2153;47.744;10.580;2023-04-25T08:03:57;9.60;99.90
4279;DHT22;2153;47.744;10.580;2023-04-25T08:06:24;10.10;99.90
4279;DHT22;2153;47.744;10.580;2023-04-25T08:08:50;10.30;99.90
4279;DHT22;2153;47.744;10.580;2023-04-25T08:11:17;10.20;99.90
4279;DHT22;2153;47.744;10.580;2023-04-25T08:13:45;10.20;99.90
4279;DHT22;2153;47.744;10.580;2023-04-25T08:16:12;10.40;99.90
4279;DHT22;2153;47.744;10.580;2023-04-25T08:18:39;10.30;99.90
4279;DHT22;2153;47.744;10.580;2023-04-25T08:21:06;10.20;99.90
4279;DHT22;2153;47.744;10.580;2023-04-25T08:23:34;10.00;99.90
4279;DHT22;2153;47.744;10.580;2023-04-25T08:26:01;9.80;99.90
4279;DHT22;2153;47.744;10.580;2023-04-25T08:28:28;10.00;99.90
4279;DHT22;2153;47.744;10.580;2023-04-25T08:30:56;10.20;99.90
4279;DHT22;2153;47.744;10.580;2023-04-25T08:33:23;11.20;99.90
4279;DHT22;2153;47.744;10.580;2023-04-25T08:35:50;12.00;99.90
4279;DHT22;2153;47.744;10.580;2023-04-25T08:38:17;12.50;99.90
4279;DHT22;2153;47.744;10.580;2023-04-25T08:40:49;13.10;99.90
4279;DHT22;2153;47.744;10.580;2023-04-25T08:43:18;13.00;99.90
4279;DHT22;2153;47.744;10.580;2023-04-25T08:45:45;12.30;97.60
4279;DHT22;2153;47.744;10.580;2023-04-25T08:48:14;11.70;99.90
4279;DHT22;2153;47.744;10.580;2023-04-25T08:50:48;11.40;99.90
4279;DHT22;2153;47.744;10.580;2023-04-25T08:53:16;11.20;99.90
4279;DHT22;2153;47.744;10.580;2023-04-25T08:55:45;11.50;99.90
4279;DHT22;2153;47.744;10.580;2023-04-25T08:58:12;11.40;99.90
4279;DHT22;2153;47.744;10.580;2023-04-25T09:00:39;11.20;99.90
4279;DHT22;2153;47.744;10.580;2023-04-25T09:03:06;11.20;99.90
4279;DHT22;2153;47.744;10.580;2023-04-25T09:05:35;11.40;99.90
4279;DHT22;2153;47.744;10.580;2023-04-25T09:08:02;11.50;99.90
4279;DHT22;2153;47.744;10.580;2023-04-25T09:10:28;11.80;99.90
4279;DHT22;2153;47.744;10.580;2023-04-25T09:13:06;11.90;99.90
4279;DHT22;2153;47.744;10.580;2023-04-25T09:15:47;11.30;99.90
4279;DHT22;2153;47.744;10.580;2023-04-25T09:18:14;10.70;99.90
4279;DHT22;2153;47.744;10.580;2023-04-25T09:20:49;10.20;99.90
4279;DHT22;2153;47.744;10.580;2023-04-25T09:23:16;10.00;99.90
4279;DHT22;2153;47.744;10.580;2023-04-25T09:25:47;9.80;99.90
4279;DHT22;2153;47.744;10.580;2023-04-25T09:28:14;9.90;99.90
4279;DHT22;2153;47.744;10.580;2023-04-25T09:30:42;9.70;99.90
4279;DHT22;2153;47.744;10.580;2023-04-25T09:33:11;9.50;99.90
4279;DHT22;2153;47.744;10.580;2023-04-25T09:35:39;9.40;99.90
4279;DHT22;2153;47.744;10.580;2023-04-25T09:38:12;9.30;99.90
4279;DHT22;2153;47.744;10.580;2023-04-25T09:40:40;9.20;99.90
4279;DHT22;2153;47.744;10.580;2023-04-25T09:43:09;9.20;99.90
4279;DHT22;2153;47.744;10.580;2023-04-25T09:45:43;9.40;99.90
4279;DHT22;2153;47.744;10.580;2023-04-25T09:48:11;9.50;99.90
4279;DHT22;2153;47.744;10.580;2023-04-25T09:50:38;9.70;99.90
4279;DHT22;2153;47.744;10.580;2023-04-25T09:53:06;9.70;99.90
4279;DHT22;2153;47.744;10.580;2023-04-25T09:55:34;9.30;99.90
4279;DHT22;2153;47.744;10.580;2023-04-25T09:58:05;8.80;99.90
4279;DHT22;2153;47.744;10.580;2023-04-25T10:00:33;8.40;99.90
4279;DHT22;2153;47.744;10.580;2023-04-25T10:03:01;8.10;99.90
4279;DHT22;2153;47.744;10.580;2023-04-25T10:05:31;8.00;99.90
4279;DHT22;2153;47.744;10.580;2023-04-25T10:08:00;8.00;99.90
4279;DHT22;2153;47.744;10.580;2023-04-25T10:10:30;8.10;99.90
4279;DHT22;2153;47.744;10.580;2023-04-25T10:13:05;8.00;99.90
4279;DHT22;2153;47.744;10.580;2023-04-25T10:15:35;7.80;99.90
4279;DHT22;2153;47.744;10.580;2023-04-25T10:18:03;7.60;99.90
4279;DHT22;2153;47.744;10.580;2023-04-25T10:20:30;7.60;99.90
4279;DHT22;2153;47.744;10.580;2023-04-25T10:23:02;7.50;99.90
4279;DHT22;2153;47.744;10.580;2023-04-25T10:25:30;7.70;99.90
4279;DHT22;2153;47.744;10.580;2023-04-25T10:27:59;7.80;99.90
4279;DHT22;2153;47.744;10.580;2023-04-25T10:30:27;8.00;99.90
4279;DHT22;2153;47.744;10.580;2023-04-25T10:32:55;8.20;99.90
4279;DHT22;2153;47.744;10.580;2023-04-25T10:35:25;8.30;99.90
4279;DHT22;2153;47.744;10.580;2023-04-25T10:38:14;8.20;99.90
4279;DHT22;2153;47.744;10.580;2023-04-25T10:40:40;8.00;99.90
4279;DHT22;2153;47.744;10.580;2023-04-25T10:43:36;7.90;99.90
4279;DHT22;2153;47.744;10.580;2023-04-25T10:46:13;8.00;99.90
4279;DHT22;2153;47.744;10.580;2023-04-25T10:48:45;8.10;99.90
4279;DHT22;2153;47.744;10.580;2023-04-25T10:51:17;8.00;99.90
4279;DHT22;2153;47.744;10.580;2023-04-25T10:53:44;8.00;99.90
4279;DHT22;2153;47.744;10.580;2023-04-25T10:56:12;7.70;99.90
4279;DHT22;2153;47.744;10.580;2023-04-25T10:58:43;7.90;99.90
4279;DHT22;2153;47.744;10.580;2023-04-25T11:01:12;7.80;99.90
4279;DHT22;2153;47.744;10.580;2023-04-25T11:03:41;7.80;99.90
4279;DHT22;2153;47.744;10.580;2023-04-25T11:06:18;7.70;99.90
4279;DHT22;2153;47.744;10.580;2023-04-25T11:08:49;7.80;99.90
4279;DHT22;2153;47.744;10.580;2023-04-25T11:11:17;8.00;99.90
4279;DHT22;2153;47.744;10.580;2023-04-25T11:13:44;8.20;99.90
4279;DHT22;2153;47.744;10.580;2023-04-25T11:16:15;8.40;99.90
4279;DHT22;2153;47.744;10.580;2023-04-25T11:18:42;8.50;99.90
4279;DHT22;2153;47.744;10.580;2023-04-25T11:21:09;8.40;99.90
4279;DHT22;2153;47.744;10.580;2023-04-25T11:23:36;8.50;99.90
4279;DHT22;2153;47.744;10.580;2023-04-25T11:26:03;8.70;99.90
4279;DHT22;2153;47.744;10.580;2023-04-25T11:28:30;8.50;99.90
4279;DHT22;2153;47.744;10.580;2023-04-25T11:30:57;8.30;99.90
4279;DHT22;2153;47.744;10.580;2023-04-25T11:33:26;8.00;99.90
4279;DHT22;2153;47.744;10.580;2023-04-25T11:35:54;7.70;99.90
4279;DHT22;2153;47.744;10.580;2023-04-25T11:38:22;7.60;99.90
4279;DHT22;2153;47.744;10.580;2023-04-25T11:40:50;7.60;99.90
4279;DHT22;2153;47.744;10.580;2023-04-25T11:43:18;7.40;99.90
4279;DHT22;2153;47.744;10.580;2023-04-25T11:45:47;7.50;99.90
4279;DHT22;2153;47.744;10.580;2023-04-25T11:48:14;7.60;99.90
4279;DHT22;2153;47.744;10.580;2023-04-25T11:50:43;7.60;99.90
4279;DHT22;2153;47.744;10.580;2023-04-25T11:53:10;7.50;99.90
4279;DHT22;2153;47.744;10.580;2023-04-25T11:55:37;7.50;99.90
4279;DHT22;2153;47.744;10.580;2023-04-25T11:58:04;7.40;99.90
4279;DHT22;2153;47.744;10.580;2023-04-25T12:00:31;7.20;99.90
4279;DHT22;2153;47.744;10.580;2023-04-25T12:02:58;7.00;99.90
4279;DHT22;2153;47.744;10.580;2023-04-25T12:05:28;6.60;99.90
4279;DHT22;2153;47.744;10.580;2023-04-25T12:07:57;6.50;99.90
4279;DHT22;2153;47.744;10.580;2023-04-25T12:10:24;6.60;99.90
4279;DHT22;2153;47.744;10.580;2023-04-25T12:12:51;6.80;99.90
4279;DHT22;2153;47.744;10.580;2023-04-25T12:15:24;7.00;99.90
4279;DHT22;2153;47.744;10.580;2023-04-25T12:17:53;7.20;99.90
4279;DHT22;2153;47.744;10.580;2023-04-25T12:20:21;7.30;99.90
4279;DHT22;2153;47.744;10.580;2023-04-25T12:22:51;7.30;99.90
4279;DHT22;2153;47.744;10.580;2023-04-25T12:25:39;7.40;99.90
4279;DHT22;2153;47.744;10.580;2023-04-25T12:28:14;7.40;99.90
4279;DHT22;2153;47.744;10.580;2023-04-25T12:30:58;7.30;99.90
4279;DHT22;2153;47.744;10.580;2023-04-25T12:33:25;7.40;99.90
4279;DHT22;2153;47.744;10.580;2023-04-25T12:35:52;7.50;99.90
4279;DHT22;2153;47.744;10.580;2023-04-25T12:38:23;7.50;99.90
4279;DHT22;2153;47.744;10.580;2023-04-25T12:40:52;7.80;99.90
4279;DHT22;2153;47.744;10.580;2023-04-25T12:43:19;8.00;99.90
4279;DHT22;2153;47.744;10.580;2023-04-25T12:45:48;7.90;99.90
4279;DHT22;2153;47.744;10.580;2023-04-25T12:48:15;7.80;99.90
4279;DHT22;2153;47.744;10.580;2023-04-25T12:50:42;8.10;99.90
4279;DHT22;2153;47.744;10.580;2023-04-25T12:53:09;8.40;99.90
4279;DHT22;2153;47.744;10.580;2023-04-25T12:55:37;8.50;99.90
4279;DHT22;2153;47.744;10.580;2023-04-25T12:58:05;8.50;99.90
4279;DHT22;2153;47.744;10.580;2023-04-25T13:00:31;8.40;99.90
4279;DHT22;2153;47.744;10.580;2023-04-25T13:02:58;8.30;99.90
4279;DHT22;2153;47.744;10.580;2023-04-25T13:05:25;8.20;99.90
4279;DHT22;2153;47.744;10.580;2023-04-25T13:07:52;7.60;99.90
4279;DHT22;2153;47.744;10.580;2023-04-25T13:10:19;8.10;99.90
4279;DHT22;2153;47.744;10.580;2023-04-25T13:12:46;7.90;99.90
4279;DHT22;2153;47.744;10.580;2023-04-25T13:15:14;8.10;99.90
4279;DHT22;2153;47.744;10.580;2023-04-25T13:17:42;8.40;99.90
4279;DHT22;2153;47.744;10.580;2023-04-25T13:20:09;8.60;99.90
4279;DHT22;2153;47.744;10.580;2023-04-25T13:22:37;8.50;99.90
4279;DHT22;2153;47.744;10.580;2023-04-25T13:25:06;8.30;99.90
4279;DHT22;2153;47.744;10.580;2023-04-25T13:27:34;8.10;99.90
4279;DHT22;2153;47.744;10.580;2023-04-25T13:30:02;8.00;99.90
4279;DHT22;2153;47.744;10.580;2023-04-25T13:32:34;7.90;99.90
4279;DHT22;2153;47.744;10.580;2023-04-25T13:35:02;8.30;99.90
4279;DHT22;2153;47.744;10.580;2023-04-25T13:37:29;8.80;99.90
4279;DHT22;2153;47.744;10.580;2023-04-25T13:39:58;8.90;99.90
4279;DHT22;2153;47.744;10.580;2023-04-25T13:42:25;8.90;99.90
4279;DHT22;2153;47.744;10.580;2023-04-25T13:44:52;8.80;99.90
4279;DHT22;2153;47.744;10.580;2023-04-25T13:47:18;8.60;99.90
4279;DHT22;2153;47.744;10.580;2023-04-25T13:49:47;8.60;99.90
4279;DHT22;2153;47.744;10.580;2023-04-25T13:52:13;8.70;99.90
4279;DHT22;2153;47.744;10.580;2023-04-25T13:54:40;8.60;99.90
4279;DHT22;2153;47.744;10.580;2023-04-25T13:57:07;8.50;99.90
4279;DHT22;2153;47.744;10.580;2023-04-25T13:59:34;8.40;99.90
4279;DHT22;2153;47.744;10.580;2023-04-25T14:02:00;8.30;99.90
4279;DHT22;2153;47.744;10.580;2023-04-25T14:04:27;8.30;99.90
4279;DHT22;2153;47.744;10.580;2023-04-25T14:06:56;8.40;99.90
4279;DHT22;2153;47.744;10.580;2023-04-25T14:09:23;8.30;99.90
4279;DHT22;2153;47.744;10.580;2023-04-25T14:11:51;8.20;99.90
4279;DHT22;2153;47.744;10.580;2023-04-25T14:14:18;7.90;99.90
4279;DHT22;2153;47.744;10.580;2023-04-25T14:16:44;7.80;99.90
4279;DHT22;2153;47.744;10.580;2023-04-25T14:19:13;7.80;99.90
4279;DHT22;2153;47.744;10.580;2023-04-25T14:21:40;7.90;99.90
4279;DHT22;2153;47.744;10.580;2023-04-25T14:24:08;8.00;99.90
4279;DHT22;2153;47.744;10.580;2023-04-25T14:26:36;8.10;99.90
4279;DHT22;2153;47.744;10.580;2023-04-25T14:29:04;8.30;99.90
4279;DHT22;2153;47.744;10.580;2023-04-25T14:31:31;8.20;99.90
4279;DHT22;2153;47.744;10.580;2023-04-25T14:33:58;7.90;99.90
4279;DHT22;2153;47.744;10.580;2023-04-25T14:36:25;7.60;99.90
4279;DHT22;2153;47.744;10.580;2023-04-25T14:38:52;7.10;99.90
4279;DHT22;2153;47.744;10.580;2023-04-25T14:41:20;6.90;99.90
4279;DHT22;2153;47.744;10.580;2023-04-25T14:43:48;6.80;99.90
4279;DHT22;2153;47.744;10.580;2023-04-25T14:46:15;6.40;99.90
4279;DHT22;2153;47.744;10.580;2023-04-25T14:48:42;6.10;99.90
4279;DHT22;2153;47.744;10.580;2023-04-25T14:51:09;5.90;99.90
4279;DHT22;2153;47.744;10.580;2023-04-25T14:53:36;5.90;99.90
4279;DHT22;2153;47.744;10.580;2023-04-25T14:56:03;6.20;99.90
4279;DHT22;2153;47.744;10.580;2023-04-25T14:58:31;6.40;99.90
4279;DHT22;2153;47.744;10.580;2023-04-25T15:00:58;6.70;99.90
4279;DHT22;2153;47.744;10.580;2023-04-25T15:03:25;6.80;99.90
4279;DHT22;2153;47.744;10.580;2023-04-25T15:05:52;6.70;99.90
4279;DHT22;2153;47.744;10.580;2023-04-25T15:08:19;6.60;99.90
4279;DHT22;2153;47.744;10.580;2023-04-25T15:10:46;6.60;99.90
4279;DHT22;2153;47.744;10.580;2023-04-25T15:13:13;6.60;99.90
4279;DHT22;2153;47.744;10.580;2023-04-25T15:15:42;6.50;99.90
4279;DHT22;2153;47.744;10.580;2023-04-25T15:18:08;6.50;99.90
4279;DHT22;2153;47.744;10.580;2023-04-25T15:20:35;6.50;99.90
4279;DHT22;2153;47.744;10.580;2023-04-25T15:23:02;6.60;99.90
4279;DHT22;2153;47.744;10.580;2023-04-25T15:25:30;6.80;99.90
4279;DHT22;2153;47.744;10.580;2023-04-25T15:27:57;6.90;99.90
4279;DHT22;2153;47.744;10.580;2023-04-25T15:30:24;7.00;99.90
4279;DHT22;2153;47.744;10.580;2023-04-25T15:32:52;7.00;99.90
4279;DHT22;2153;47.744;10.580;2023-04-25T15:35:19;7.10;99.90
4279;DHT22;2153;47.744;10.580;2023-04-25T15:37:46;7.20;99.90
4279;DHT22;2153;47.744;10.580;2023-04-25T15:40:15;7.30;99.90
4279;DHT22;2153;47.744;10.580;2023-04-25T15:42:43;7.40;99.90
4279;DHT22;2153;47.744;10.580;2023-04-25T15:45:13;7.40;99.90
4279;DHT22;2153;47.744;10.580;2023-04-25T15:47:40;7.40;99.90
4279;DHT22;2153;47.744;10.580;2023-04-25T15:50:09;7.30;99.90
4279;DHT22;2153;47.744;10.580;2023-04-25T15:52:37;7.10;99.90
4279;DHT22;2153;47.744;10.580;2023-04-25T15:55:05;7.10;99.90
4279;DHT22;2153;47.744;10.580;2023-04-25T15:57:34;6.90;99.90
4279;DHT22;2153;47.744;10.580;2023-04-25T16:00:01;7.00;99.90
4279;DHT22;2153;47.744;10.580;2023-04-25T16:02:32;6.90;99.90